Главная страница
METAR-TAF:

METAR-TAF

Аэропорты :

Махшехр, Иран

широта: 30-33-23N, долгота: 049-09-07E, высота над уровнем моря: 2 м

Текущие метеонаблюдения

Эта сводка был подготовлена 46 минут назад, в 03:00 UTC
Ветер 16 Узел от восточный
Температура 25°C
Влажность 61%
Давление 1003 hPa
Видимость: 8000 м
небольшая облачность на высоте 3500 фута, Кучево-дождевые.
Рассеянная облачность на высоте 4000 фута

METAR: OIAM 100300Z 09016KT 8000 FEW035CB BKN040 25/17 Q1003

Время: 08:16 (03:46 UTC)


TAF: отсутствует

Метеонаблюдения и прогнозы для более 4000 аэропортов (сводки METAR и TAF).

Имеющиеся станции представлены на карте желтыми и красными точками.

Чтобы увидеть название станции, наведите на нее мышь.

Затем щелкните, чтобы увидеть метеонаблюдения и метеопрогнозы.

Управление картой: чтобы увеличить масштаб, щелкните зеленые кнопки с черным крестиком; чтобы уменьшить масштаб, щелкните зеленую кнопку с тире; для просмотра соседних карт щелкайте зеленые стрелки.


METAR-TAF: